Time;durP1;ratioP1;P1;durP2;ratioP2;P2;SDS_P1;SDS_P2;PMS_P1;PMS_P2;Temp;Humidity;BMP_temperature;BMP_pressure;BME280_temperature;BME280_humidity;BME280_pressure;Samples;Min_cycle;Max_cycle;Signal;HPM_P1;HPM_P2
2021/01/19 00:01:50;;;;;;;12.73;7.07;;;;;;;;;;5050662;28;20507;-69
2021/01/19 00:04:16;;;;;;;14.20;7.57;;;;;;;;;;5051687;28;20060;-69
2021/01/19 00:06:42;;;;;;;13.13;6.90;;;;;;;;;;5049879;28;20045;-69
2021/01/19 00:09:09;;;;;;;10.18;6.38;;;;;;;;;;5050657;28;20049;-70
2021/01/19 00:11:35;;;;;;;9.77;5.30;;;;;;;;;;5049480;28;20124;-69
2021/01/19 00:14:02;;;;;;;12.52;6.85;;;;;;;;;;5049101;28;20049;-69
2021/01/19 00:16:28;;;;;;;12.90;7.00;;;;;;;;;;5052728;28;20091;-69
2021/01/19 00:18:54;;;;;;;12.40;6.78;;;;;;;;;;5052017;28;20071;-70
2021/01/19 00:21:20;;;;;;;11.55;6.97;;;;;;;;;;5050807;28;20048;-70
2021/01/19 00:23:47;;;;;;;12.50;7.45;;;;;;;;;;5049500;28;20065;-70
2021/01/19 00:26:13;;;;;;;13.45;7.45;;;;;;;;;;5051224;28;20045;-69
2021/01/19 00:28:59;;;;;;;13.00;7.35;;;;;;;;;;5050151;28;20132;-70
2021/01/19 00:31:40;;;;;;;12.27;6.93;;;;;;;;;;5051098;28;20073;-69
2021/01/19 00:34:07;;;;;;;11.18;6.85;;;;;;;;;;5049540;28;20523;-69
2021/01/19 00:36:33;;;;;;;12.03;7.43;;;;;;;;;;5050258;28;20048;-70
2021/01/19 00:39:00;;;;;;;12.23;6.85;;;;;;;;;;5047841;28;20150;-70
2021/01/19 00:41:27;;;;;;;10.07;6.32;;;;;;;;;;5051617;28;20056;-70
2021/01/19 00:43:54;;;;;;;11.55;6.90;;;;;;;;;;5049622;28;20041;-69
2021/01/19 00:46:20;;;;;;;10.65;6.72;;;;;;;;;;5050132;28;20518;-69
2021/01/19 00:48:46;;;;;;;11.47;7.10;;;;;;;;;;5049592;28;20206;-68
2021/01/19 00:51:13;;;;;;;13.43;6.97;;;;;;;;;;5051542;28;20288;-69
2021/01/19 00:53:39;;;;;;;10.38;7.07;;;;;;;;;;5048865;28;20581;-70
2021/01/19 00:56:06;;;;;;;10.98;6.65;;;;;;;;;;5047797;28;20053;-69
2021/01/19 00:58:32;;;;;;;10.10;6.40;;;;;;;;;;5046193;28;20122;-69
2021/01/19 01:01:00;;;;;;;13.95;6.80;;;;;;;;;;5048456;28;20045;-70
2021/01/19 01:03:29;;;;;;;10.57;6.47;;;;;;;;;;5049803;28;20059;-69
2021/01/19 01:05:56;;;;;;;10.93;6.70;;;;;;;;;;5048122;28;20055;-69
2021/01/19 01:08:23;;;;;;;11.68;6.97;;;;;;;;;;5049637;28;20044;-69
2021/01/19 01:10:50;;;;;;;13.45;6.93;;;;;;;;;;5048524;28;20064;-69
2021/01/19 01:13:17;;;;;;;15.18;7.80;;;;;;;;;;5048844;28;20044;-69
2021/01/19 01:15:43;;;;;;;24.17;9.40;;;;;;;;;;5048289;28;20405;-69
2021/01/19 01:18:13;;;;;;;9.68;6.38;;;;;;;;;;5048648;28;20055;-69
2021/01/19 01:20:41;;;;;;;11.25;6.65;;;;;;;;;;5047769;28;20032;-69
2021/01/19 01:23:07;;;;;;;12.32;7.10;;;;;;;;;;5047494;28;20061;-69
2021/01/19 01:25:34;;;;;;;11.68;7.07;;;;;;;;;;5048634;28;20511;-70
2021/01/19 01:28:01;;;;;;;13.90;6.95;;;;;;;;;;5047579;28;20658;-69
2021/01/19 01:30:27;;;;;;;;;;;;;;;;;;5051352;28;20123;-69
2021/01/19 01:32:54;;;;;;;12.30;6.55;;;;;;;;;;5048534;28;19967;-69
2021/01/19 01:35:22;;;;;;;18.38;8.73;;;;;;;;;;5049726;28;20519;-69
2021/01/19 01:37:50;;;;;;;15.27;7.38;;;;;;;;;;5050324;28;20523;-70
2021/01/19 01:40:17;;;;;;;13.43;7.93;;;;;;;;;;5048399;28;20039;-70
2021/01/19 01:42:48;;;;;;;18.35;8.95;;;;;;;;;;5049484;28;20141;-69
2021/01/19 01:45:17;;;;;;;23.50;9.53;;;;;;;;;;5049958;28;20040;-69
2021/01/19 01:47:44;;;;;;;17.58;8.70;;;;;;;;;;5049123;28;20299;-69
2021/01/19 01:50:10;;;;;;;18.40;8.93;;;;;;;;;;5047213;28;20037;-69
2021/01/19 01:52:37;;;;;;;25.33;8.73;;;;;;;;;;5046845;28;20033;-69
2021/01/19 01:55:04;;;;;;;15.27;8.43;;;;;;;;;;5047708;28;20056;-70
2021/01/19 01:57:30;;;;;;;20.05;7.72;;;;;;;;;;5047557;28;20095;-69
2021/01/19 01:59:59;;;;;;;17.63;8.73;;;;;;;;;;5047498;28;20045;-69
2021/01/19 02:02:25;;;;;;;16.65;8.38;;;;;;;;;;5046835;28;20045;-69
2021/01/19 02:04:51;;;;;;;18.48;8.30;;;;;;;;;;5045117;28;20510;-69
2021/01/19 02:07:21;;;;;;;20.98;8.90;;;;;;;;;;5046488;28;20562;-69
2021/01/19 02:09:52;;;;;;;23.38;8.75;;;;;;;;;;5046420;28;20045;-69
2021/01/19 02:12:22;;;;;;;22.25;9.55;;;;;;;;;;5048504;28;20052;-69
2021/01/19 02:14:59;;;;;;;16.33;8.27;;;;;;;;;;5049045;28;20032;-69
2021/01/19 02:17:48;;;;;;;21.48;9.82;;;;;;;;;;5048418;28;20425;-69
2021/01/19 02:20:14;;;;;;;;;;;;;;;;;;5047949;28;20183;-69
2021/01/19 02:22:50;;;;;;;15.80;7.97;;;;;;;;;;5048862;28;19956;-69
2021/01/19 02:25:46;;;;;;;16.52;8.80;;;;;;;;;;5046881;28;20044;-69
2021/01/19 02:28:31;;;;;;;21.38;9.00;;;;;;;;;;5049554;28;20467;-69
2021/01/19 02:31:16;;;;;;;19.17;8.95;;;;;;;;;;5047167;28;20559;-69
2021/01/19 02:33:42;;;;;;;17.95;9.60;;;;;;;;;;5047149;28;20048;-69
2021/01/19 02:36:15;;;;;;;17.00;8.77;;;;;;;;;;5045902;28;20114;-69
2021/01/19 02:38:53;;;;;;;23.85;9.18;;;;;;;;;;5047048;28;20091;-70
2021/01/19 02:41:20;;;;;;;20.83;9.60;;;;;;;;;;5046109;28;20111;-69
2021/01/19 02:43:48;;;;;;;16.00;6.82;;;;;;;;;;5048375;28;20053;-69
2021/01/19 02:46:17;;;;;;;19.45;9.10;;;;;;;;;;5046943;28;20045;-69
2021/01/19 02:48:43;;;;;;;22.48;10.38;;;;;;;;;;5049285;28;20110;-69
2021/01/19 02:51:09;;;;;;;22.88;9.07;;;;;;;;;;5049333;28;20731;-69
2021/01/19 02:53:35;;;;;;;19.10;9.07;;;;;;;;;;5048559;28;20056;-69
2021/01/19 02:56:02;;;;;;;23.15;10.20;;;;;;;;;;5047532;28;20071;-69
2021/01/19 02:58:41;;;;;;;19.48;6.82;;;;;;;;;;5047055;28;20547;-69
2021/01/19 03:01:25;;;;;;;28.02;10.85;;;;;;;;;;5045178;28;20084;-69
2021/01/19 03:03:51;;;;;;;21.42;9.20;;;;;;;;;;5047276;28;20052;-69
2021/01/19 03:06:18;;;;;;;25.20;10.93;;;;;;;;;;5046241;28;20505;-69
2021/01/19 03:08:45;;;;;;;20.55;9.10;;;;;;;;;;5048196;28;20033;-69
2021/01/19 03:11:16;;;;;;;25.88;10.27;;;;;;;;;;5046830;28;20042;-69
2021/01/19 03:13:43;;;;;;;23.13;9.98;;;;;;;;;;5045779;28;20041;-69
2021/01/19 03:16:11;;;;;;;22.25;9.98;;;;;;;;;;5047443;28;20041;-69
2021/01/19 03:18:38;;;;;;;30.45;10.80;;;;;;;;;;5047343;28;20178;-69
2021/01/19 03:21:05;;;;;;;24.02;10.70;;;;;;;;;;5044639;28;20696;-69
2021/01/19 03:23:32;;;;;;;26.08;10.27;;;;;;;;;;5042964;28;20049;-69
2021/01/19 03:25:58;;;;;;;28.77;10.85;;;;;;;;;;5047113;28;20048;-69
2021/01/19 03:28:24;;;;;;;31.35;12.15;;;;;;;;;;5045441;28;20057;-69
2021/01/19 03:30:51;;;;;;;35.72;11.88;;;;;;;;;;5048452;28;20115;-69
2021/01/19 03:33:17;;;;;;;20.13;9.38;;;;;;;;;;5046618;28;20542;-69
2021/01/19 03:35:43;;;;;;;30.42;11.23;;;;;;;;;;5045807;28;20045;-69
2021/01/19 03:38:09;;;;;;;25.73;11.05;;;;;;;;;;5046196;28;20531;-69
2021/01/19 03:40:37;;;;;;;31.48;11.25;;;;;;;;;;5047094;28;20052;-69
2021/01/19 03:43:04;;;;;;;36.38;10.68;;;;;;;;;;5042795;28;20057;-69
2021/01/19 03:45:30;;;;;;;34.17;12.63;;;;;;;;;;5046615;28;20041;-69
2021/01/19 03:47:56;;;;;;;29.25;10.98;;;;;;;;;;5046825;28;20044;-69
2021/01/19 03:50:23;;;;;;;31.17;12.65;;;;;;;;;;5046757;28;20561;-69
2021/01/19 03:52:49;;;;;;;42.67;12.45;;;;;;;;;;5044276;28;20044;-69
2021/01/19 03:55:16;;;;;;;45.67;12.93;;;;;;;;;;5048673;28;20044;-69
2021/01/19 03:57:42;;;;;;;57.75;15.02;;;;;;;;;;5049241;28;20120;-69
2021/01/19 04:00:09;;;;;;;42.85;12.52;;;;;;;;;;5047043;28;20937;-70
2021/01/19 04:02:38;;;;;;;49.88;13.93;;;;;;;;;;5047741;28;20041;-69
2021/01/19 04:05:04;;;;;;;50.77;14.53;;;;;;;;;;5048904;28;20041;-69
2021/01/19 04:07:30;;;;;;;45.78;13.93;;;;;;;;;;5048333;28;20341;-69
2021/01/19 04:09:56;;;;;;;62.88;15.88;;;;;;;;;;5045571;28;20049;-69
2021/01/19 04:12:23;;;;;;;54.65;13.88;;;;;;;;;;5047657;28;20037;-69
2021/01/19 04:14:49;;;;;;;54.60;15.13;;;;;;;;;;5048093;28;20068;-69
2021/01/19 04:17:16;;;;;;;44.55;13.30;;;;;;;;;;5047551;28;20037;-70
2021/01/19 04:19:42;;;;;;;39.75;13.77;;;;;;;;;;5046976;28;20128;-69
2021/01/19 04:22:08;;;;;;;59.53;15.32;;;;;;;;;;5047491;28;20147;-70
2021/01/19 04:24:36;;;;;;;24.98;9.60;;;;;;;;;;5048452;28;20124;-70
2021/01/19 04:27:02;;;;;;;41.10;13.30;;;;;;;;;;5050583;28;20068;-69
2021/01/19 04:29:28;;;;;;;45.00;13.18;;;;;;;;;;5051319;28;20041;-69
2021/01/19 04:31:54;;;;;;;50.17;14.23;;;;;;;;;;5050956;28;20047;-69
2021/01/19 04:34:21;;;;;;;40.80;14.25;;;;;;;;;;5050002;28;20056;-69
2021/01/19 04:36:47;;;;;;;43.13;12.98;;;;;;;;;;5049897;28;20444;-70
2021/01/19 04:39:13;;;;;;;62.85;14.90;;;;;;;;;;5050295;28;20094;-70
2021/01/19 04:41:40;;;;;;;41.75;13.70;;;;;;;;;;5049660;28;20033;-69
2021/01/19 04:44:06;;;;;;;23.83;9.50;;;;;;;;;;5050825;28;20049;-69
2021/01/19 04:46:33;;;;;;;36.50;12.07;;;;;;;;;;5051310;28;20075;-69
2021/01/19 04:49:00;;;;;;;42.08;13.10;;;;;;;;;;5049545;28;20045;-69
2021/01/19 04:51:28;;;;;;;42.85;13.70;;;;;;;;;;5050541;28;20033;-69
2021/01/19 04:54:10;;;;;;;31.55;11.85;;;;;;;;;;5049615;28;20053;-69
2021/01/19 04:56:37;;;;;;;36.40;11.57;;;;;;;;;;5051010;28;20094;-69
2021/01/19 04:59:10;;;;;;;47.40;13.15;;;;;;;;;;5049957;28;20524;-69
2021/01/19 05:01:36;;;;;;;51.67;14.13;;;;;;;;;;5049396;28;20041;-69
2021/01/19 05:04:21;;;;;;;60.65;13.45;;;;;;;;;;5049856;28;20045;-69
2021/01/19 05:07:06;;;;;;;47.25;14.48;;;;;;;;;;5047513;28;20080;-69
2021/01/19 05:09:36;;;;;;;71.05;15.75;;;;;;;;;;5047457;28;20045;-69
2021/01/19 05:12:03;;;;;;;58.80;15.00;;;;;;;;;;5046789;28;20492;-69
2021/01/19 05:14:36;;;;;;;60.50;14.23;;;;;;;;;;5047907;28;20051;-69
2021/01/19 05:17:02;;;;;;;52.60;14.50;;;;;;;;;;5049614;28;20508;-69
2021/01/19 05:19:29;;;;;;;64.20;15.70;;;;;;;;;;5047166;28;20102;-69
2021/01/19 05:21:55;;;;;;;39.53;12.02;;;;;;;;;;5050429;28;20037;-69
2021/01/19 05:24:22;;;;;;;59.53;17.00;;;;;;;;;;5046229;28;20056;-69
2021/01/19 05:26:49;;;;;;;45.08;11.95;;;;;;;;;;5047215;28;20136;-69
2021/01/19 05:29:15;;;;;;;57.78;14.27;;;;;;;;;;5048466;28;20045;-69
2021/01/19 05:31:41;;;;;;;61.63;15.02;;;;;;;;;;5049677;28;20049;-69
2021/01/19 05:34:09;;;;;;;47.17;14.30;;;;;;;;;;5047671;28;20056;-70
2021/01/19 05:36:35;;;;;;;56.17;14.48;;;;;;;;;;5045261;28;20094;-69
2021/01/19 05:39:02;;;;;;;69.85;14.95;;;;;;;;;;5043871;28;20045;-69
2021/01/19 05:41:31;;;;;;;47.65;13.02;;;;;;;;;;5048040;28;20037;-69
2021/01/19 05:44:10;;;;;;;36.42;13.57;;;;;;;;;;5047364;28;20136;-69
2021/01/19 05:46:41;;;;;;;51.17;12.70;;;;;;;;;;5047825;28;20041;-69
2021/01/19 05:49:12;;;;;;;46.15;12.68;;;;;;;;;;5045861;28;20052;-68
2021/01/19 05:51:41;;;;;;;54.25;14.10;;;;;;;;;;5048598;28;20052;-68
2021/01/19 05:54:10;;;;;;;52.67;13.85;;;;;;;;;;5046046;28;20062;-68
2021/01/19 05:56:36;;;;;;;66.45;14.82;;;;;;;;;;5047547;28;20059;-68
2021/01/19 05:59:04;;;;;;;51.97;13.55;;;;;;;;;;5048778;28;20045;-68
2021/01/19 06:01:33;;;;;;;50.20;14.20;;;;;;;;;;5049065;28;20045;-68
2021/01/19 06:04:00;;;;;;;45.50;12.88;;;;;;;;;;5046380;28;20116;-68
2021/01/19 06:06:27;;;;;;;;;;;;;;;;;;5047263;28;20049;-68
2021/01/19 06:09:05;;;;;;;43.45;12.10;;;;;;;;;;5046027;28;20309;-69
2021/01/19 06:11:35;;;;;;;40.85;12.10;;;;;;;;;;5048974;28;20103;-68
2021/01/19 06:14:02;;;;;;;39.05;11.70;;;;;;;;;;5032693;28;20061;-68
2021/01/19 06:16:28;;;;;;;37.30;11.40;;;;;;;;;;5049536;28;20052;-69
2021/01/19 06:18:54;;;;;;;36.92;11.32;;;;;;;;;;5048149;28;20091;-69
2021/01/19 06:21:26;;;;;;;38.15;11.90;;;;;;;;;;5048527;28;20051;-69
2021/01/19 06:23:52;;;;;;;34.15;11.10;;;;;;;;;;5048236;28;20048;-68
2021/01/19 06:26:18;;;;;;;40.50;12.30;;;;;;;;;;5047691;28;20033;-69
2021/01/19 06:28:45;;;;;;;41.83;12.38;;;;;;;;;;5046513;28;20080;-68
2021/01/19 06:31:12;;;;;;;41.00;13.10;;;;;;;;;;5048639;28;20118;-69
2021/01/19 06:33:40;;;;;;;39.70;12.82;;;;;;;;;;5050028;28;20044;-69
2021/01/19 06:36:06;;;;;;;54.60;13.95;;;;;;;;;;5047304;28;20048;-69
2021/01/19 06:38:33;;;;;;;43.60;12.60;;;;;;;;;;5047915;28;20045;-69
2021/01/19 06:41:01;;;;;;;42.30;11.85;;;;;;;;;;5049513;28;20072;-69
2021/01/19 06:43:35;;;;;;;39.55;12.98;;;;;;;;;;5048621;28;20049;-69
2021/01/19 06:46:06;;;;;;;40.70;12.63;;;;;;;;;;5048124;28;20078;-69
2021/01/19 06:48:33;;;;;;;28.33;10.88;;;;;;;;;;5047639;28;20040;-70
2021/01/19 06:51:02;;;;;;;41.07;12.53;;;;;;;;;;5047034;28;20044;-70
2021/01/19 06:53:33;;;;;;;43.35;10.98;;;;;;;;;;5048644;28;20287;-70
2021/01/19 06:56:09;;;;;;;40.70;11.80;;;;;;;;;;5048991;28;20049;-70
2021/01/19 06:58:39;;;;;;;27.02;8.75;;;;;;;;;;5048502;28;20133;-70
2021/01/19 07:01:08;;;;;;;33.40;10.40;;;;;;;;;;5047337;28;20029;-70
2021/01/19 07:03:36;;;;;;;30.35;9.75;;;;;;;;;;5050161;28;20049;-70
2021/01/19 07:06:06;;;;;;;30.77;10.63;;;;;;;;;;5048581;28;20480;-70
2021/01/19 07:08:42;;;;;;;28.23;9.63;;;;;;;;;;5048062;28;20029;-70
2021/01/19 07:11:31;;;;;;;30.35;8.70;;;;;;;;;;5048279;28;20049;-70
2021/01/19 07:14:09;;;;;;;28.88;9.50;;;;;;;;;;5048016;28;20052;-70
2021/01/19 07:16:40;;;;;;;19.08;7.30;;;;;;;;;;5046837;28;20048;-70
2021/01/19 07:19:17;;;;;;;30.50;8.88;;;;;;;;;;5048013;28;20111;-70
2021/01/19 07:22:03;;;;;;;29.58;8.57;;;;;;;;;;5046081;28;20064;-70
2021/01/19 07:24:46;;;;;;;26.77;8.75;;;;;;;;;;5047296;28;20048;-70
2021/01/19 07:27:13;;;;;;;28.10;10.10;;;;;;;;;;5046581;28;20081;-71
2021/01/19 07:29:40;;;;;;;28.38;9.13;;;;;;;;;;5048658;28;20049;-70
2021/01/19 07:32:08;;;;;;;28.70;10.13;;;;;;;;;;5048263;28;20053;-70
2021/01/19 07:34:36;;;;;;;28.55;8.98;;;;;;;;;;5048612;28;20124;-70
2021/01/19 07:37:02;;;;;;;28.73;8.90;;;;;;;;;;5046963;28;20134;-70
2021/01/19 07:39:33;;;;;;;25.50;8.48;;;;;;;;;;5048620;28;20091;-70
2021/01/19 07:42:09;;;;;;;25.00;8.45;;;;;;;;;;5046326;28;20088;-70
2021/01/19 07:44:36;;;;;;;23.20;7.78;;;;;;;;;;5046649;28;20048;-70
2021/01/19 07:47:13;;;;;;;25.88;7.75;;;;;;;;;;5047423;28;20051;-70
2021/01/19 07:49:40;;;;;;;20.00;6.53;;;;;;;;;;5047902;28;20095;-70
2021/01/19 07:52:14;;;;;;;16.23;4.93;;;;;;;;;;5047936;28;20043;-70
2021/01/19 07:54:41;;;;;;;23.33;5.97;;;;;;;;;;5048124;28;20044;-70
2021/01/19 07:57:12;;;;;;;11.80;3.65;;;;;;;;;;5046318;28;20056;-70
2021/01/19 07:59:39;;;;;;;10.65;4.85;;;;;;;;;;5040893;28;20045;-71
2021/01/19 08:02:05;;;;;;;11.68;4.25;;;;;;;;;;5051810;28;20056;-70
2021/01/19 08:04:35;;;;;;;15.65;4.88;;;;;;;;;;5052109;28;20037;-70
2021/01/19 08:07:11;;;;;;;19.92;4.45;;;;;;;;;;5050256;28;20558;-70
2021/01/19 08:09:37;;;;;;;14.70;4.13;;;;;;;;;;5051457;28;20040;-70
2021/01/19 08:12:12;;;;;;;10.10;3.17;;;;;;;;;;5051339;28;20044;-70
2021/01/19 08:14:40;;;;;;;13.38;3.38;;;;;;;;;;5051320;28;20041;-70
2021/01/19 08:17:06;;;;;;;6.55;2.60;;;;;;;;;;5050396;28;20540;-69
2021/01/19 08:19:43;;;;;;;6.97;2.95;;;;;;;;;;5050338;28;20947;-70
2021/01/19 08:22:10;;;;;;;7.78;2.47;;;;;;;;;;5051308;28;20570;-70
2021/01/19 08:24:41;;;;;;;10.85;3.33;;;;;;;;;;5051282;28;20124;-70
2021/01/19 08:27:07;;;;;;;8.57;2.97;;;;;;;;;;5050472;28;20115;-70
2021/01/19 08:29:35;;;;;;;6.35;2.17;;;;;;;;;;5051306;28;20051;-70
2021/01/19 08:32:02;;;;;;;14.93;3.40;;;;;;;;;;5049364;28;20053;-70
2021/01/19 08:34:30;;;;;;;6.95;1.83;;;;;;;;;;5051167;28;20048;-70
2021/01/19 08:36:57;;;;;;;9.05;4.55;;;;;;;;;;5050603;28;20129;-70
2021/01/19 08:39:23;;;;;;;6.05;2.40;;;;;;;;;;5051627;28;20045;-70
2021/01/19 08:41:50;;;;;;;7.75;3.15;;;;;;;;;;5049671;28;20097;-70
2021/01/19 08:44:31;;;;;;;6.93;2.47;;;;;;;;;;5050539;28;20049;-70
2021/01/19 08:46:57;;;;;;;14.68;3.80;;;;;;;;;;5048337;28;20037;-70
2021/01/19 08:49:24;;;;;;;9.95;3.50;;;;;;;;;;5049977;28;20072;-70
2021/01/19 08:51:53;;;;;;;8.75;3.00;;;;;;;;;;5051070;28;20045;-70
2021/01/19 08:54:20;;;;;;;9.45;3.70;;;;;;;;;;5051281;28;20045;-69
2021/01/19 08:56:46;;;;;;;8.47;2.60;;;;;;;;;;5050791;28;20069;-70
2021/01/19 08:59:16;;;;;;;4.32;2.70;;;;;;;;;;5050700;28;20295;-70
2021/01/19 09:01:52;;;;;;;17.52;3.33;;;;;;;;;;5050725;28;20131;-70
2021/01/19 09:04:25;;;;;;;12.20;2.72;;;;;;;;;;5050371;28;20500;-70
2021/01/19 09:06:52;;;;;;;6.50;2.67;;;;;;;;;;5046770;28;20037;-70
2021/01/19 09:09:19;;;;;;;7.35;2.38;;;;;;;;;;5048825;28;20396;-70
2021/01/19 09:11:45;;;;;;;7.50;2.67;;;;;;;;;;5049847;28;20045;-70
2021/01/19 09:14:12;;;;;;;7.07;3.08;;;;;;;;;;5049917;28;20044;-70
2021/01/19 09:16:39;;;;;;;7.57;3.00;;;;;;;;;;5050201;28;20065;-69
2021/01/19 09:19:10;;;;;;;8.55;2.38;;;;;;;;;;5051007;28;20048;-70
2021/01/19 09:21:38;;;;;;;6.13;2.78;;;;;;;;;;5050286;28;20049;-70
2021/01/19 09:24:14;;;;;;;8.38;3.25;;;;;;;;;;5052802;28;20041;-70
2021/01/19 09:26:56;;;;;;;8.98;2.90;;;;;;;;;;5048896;28;20044;-70
2021/01/19 09:29:28;;;;;;;6.30;2.50;;;;;;;;;;5048426;28;20072;-70
2021/01/19 09:31:57;;;;;;;4.55;2.30;;;;;;;;;;5048577;28;20064;-70
2021/01/19 09:34:23;;;;;;;6.32;2.53;;;;;;;;;;5050872;28;20041;-70
2021/01/19 09:36:50;;;;;;;5.03;2.50;;;;;;;;;;5047814;28;20049;-70
2021/01/19 09:39:30;;;;;;;5.88;2.47;;;;;;;;;;5048914;28;20033;-70
2021/01/19 09:42:00;;;;;;;6.30;3.13;;;;;;;;;;5047497;28;20592;-70
2021/01/19 09:44:31;;;;;;;8.13;2.58;;;;;;;;;;5050424;28;20112;-69
2021/01/19 09:47:01;;;;;;;4.68;2.50;;;;;;;;;;5047414;28;20048;-69
2021/01/19 09:49:28;;;;;;;4.22;2.22;;;;;;;;;;5049721;28;20083;-68
2021/01/19 09:51:54;;;;;;;3.10;1.75;;;;;;;;;;5048605;28;20038;-68
2021/01/19 09:54:21;;;;;;;3.85;2.17;;;;;;;;;;5048023;28;20114;-68
2021/01/19 09:57:09;;;;;;;2.70;2.00;;;;;;;;;;5047476;28;20049;-68
2021/01/19 09:59:36;;;;;;;3.70;2.03;;;;;;;;;;5049604;28;20420;-68
2021/01/19 10:02:02;;;;;;;5.95;2.20;;;;;;;;;;5049237;28;20057;-68
2021/01/19 10:04:29;;;;;;;6.00;2.15;;;;;;;;;;5048839;28;20095;-68
2021/01/19 10:07:02;;;;;;;7.07;2.65;;;;;;;;;;5048030;28;20041;-68
2021/01/19 10:09:28;;;;;;;4.18;2.10;;;;;;;;;;5049267;28;20599;-68
2021/01/19 10:11:55;;;;;;;4.35;1.70;;;;;;;;;;5049459;28;20098;-68
2021/01/19 10:14:21;;;;;;;7.95;2.00;;;;;;;;;;5046783;28;20041;-68
2021/01/19 10:16:48;;;;;;;3.67;1.60;;;;;;;;;;5049168;28;20040;-68
2021/01/19 10:19:34;;;;;;;4.00;2.40;;;;;;;;;;5048413;28;20064;-68
2021/01/19 10:22:04;;;;;;;4.35;1.80;;;;;;;;;;5047528;28;20110;-68
2021/01/19 10:24:31;;;;;;;3.80;1.80;;;;;;;;;;5048848;28;20091;-68
2021/01/19 10:26:58;;;;;;;1.80;1.30;;;;;;;;;;5046496;28;20049;-68
2021/01/19 10:29:25;;;;;;;3.22;1.60;;;;;;;;;;5049975;28;20037;-68
2021/01/19 10:31:54;;;;;;;2.65;1.60;;;;;;;;;;5049749;28;20447;-68
2021/01/19 10:34:21;;;;;;;4.55;2.25;;;;;;;;;;5049262;28;20099;-67
2021/01/19 10:36:52;;;;;;;2.25;1.23;;;;;;;;;;5048771;28;20051;-68
2021/01/19 10:39:20;;;;;;;8.55;2.80;;;;;;;;;;5048382;28;20041;-68
2021/01/19 10:41:49;;;;;;;5.47;3.13;;;;;;;;;;5046237;28;20033;-68
2021/01/19 10:44:16;;;;;;;3.55;2.50;;;;;;;;;;5046603;28;20048;-68
2021/01/19 10:46:43;;;;;;;7.43;3.55;;;;;;;;;;5049715;28;20057;-68
2021/01/19 10:49:16;;;;;;;3.92;1.80;;;;;;;;;;5048772;28;20134;-68
2021/01/19 10:51:44;;;;;;;2.50;1.95;;;;;;;;;;5048519;28;20095;-68
2021/01/19 10:54:10;;;;;;;;;;;;;;;;;;5049309;28;20099;-67
2021/01/19 10:56:36;;;;;;;4.43;2.15;;;;;;;;;;5048826;28;19924;-68
2021/01/19 10:59:03;;;;;;;4.80;1.88;;;;;;;;;;5046929;28;20060;-68
2021/01/19 11:01:30;;;;;;;3.00;1.48;;;;;;;;;;5047241;28;20484;-68
2021/01/19 11:03:56;;;;;;;3.83;2.38;;;;;;;;;;5047653;28;20067;-68
2021/01/19 11:06:28;;;;;;;2.88;1.85;;;;;;;;;;5047973;28;20056;-68
2021/01/19 11:08:55;;;;;;;2.20;1.35;;;;;;;;;;5048661;28;20041;-68
2021/01/19 11:11:21;;;;;;;2.05;1.63;;;;;;;;;;5048504;28;20059;-68
2021/01/19 11:13:48;;;;;;;3.93;1.10;;;;;;;;;;5047957;28;20103;-68
2021/01/19 11:16:14;;;;;;;3.97;1.95;;;;;;;;;;5056626;28;20459;-68
2021/01/19 11:18:40;;;;;;;3.22;1.67;;;;;;;;;;5045960;28;20041;-69
2021/01/19 11:21:06;;;;;;;9.18;1.70;;;;;;;;;;5048292;28;20048;-69
2021/01/19 11:23:32;;;;;;;2.33;1.48;;;;;;;;;;5047669;28;20095;-68
2021/01/19 11:25:59;;;;;;;3.47;1.70;;;;;;;;;;5047046;28;20435;-68
2021/01/19 11:28:25;;;;;;;3.97;1.55;;;;;;;;;;5045421;28;20099;-68
2021/01/19 11:30:51;;;;;;;4.50;1.77;;;;;;;;;;5048107;28;20041;-68
2021/01/19 11:33:17;;;;;;;1.67;1.23;;;;;;;;;;5049038;28;20493;-68
2021/01/19 11:35:44;;;;;;;2.78;1.50;;;;;;;;;;5050846;28;20435;-68
2021/01/19 11:38:10;;;;;;;2.33;1.20;;;;;;;;;;5052306;28;20044;-69
2021/01/19 11:40:38;;;;;;;2.38;1.20;;;;;;;;;;5052761;28;20033;-69
2021/01/19 11:43:17;;;;;;;1.50;1.10;;;;;;;;;;5053317;28;20126;-69
2021/01/19 11:45:43;;;;;;;3.47;1.27;;;;;;;;;;5050449;28;20045;-69
2021/01/19 11:48:09;;;;;;;1.58;0.90;;;;;;;;;;5050354;28;20047;-69
2021/01/19 11:50:36;;;;;;;0.73;0.73;;;;;;;;;;5052166;28;20093;-69
2021/01/19 11:53:02;;;;;;;0.85;0.77;;;;;;;;;;5050218;28;20048;-69
2021/01/19 11:55:28;;;;;;;1.23;0.90;;;;;;;;;;5050858;28;20453;-69
2021/01/19 11:57:54;;;;;;;0.95;0.80;;;;;;;;;;5051021;28;20045;-69
2021/01/19 12:00:20;;;;;;;1.42;0.82;;;;;;;;;;5052274;28;20087;-69
2021/01/19 12:02:46;;;;;;;1.52;0.90;;;;;;;;;;5051461;28;20106;-69
2021/01/19 12:05:13;;;;;;;1.48;0.90;;;;;;;;;;5050160;28;20504;-69
2021/01/19 12:07:40;;;;;;;0.75;0.75;;;;;;;;;;5050644;28;20045;-69
2021/01/19 12:10:07;;;;;;;1.52;1.08;;;;;;;;;;5051547;28;20059;-69
2021/01/19 12:12:34;;;;;;;1.00;0.85;;;;;;;;;;5050630;28;20049;-69
2021/01/19 12:15:00;;;;;;;;;;;;;;;;;;5050748;28;20056;-69
2021/01/19 12:17:26;;;;;;;10.40;6.63;;;;;;;;;;5051703;28;19921;-69
2021/01/19 12:19:53;;;;;;;3.42;1.90;;;;;;;;;;5049470;28;20539;-69
2021/01/19 12:22:19;;;;;;;2.53;1.30;;;;;;;;;;5051017;28;20167;-69
2021/01/19 12:24:47;;;;;;;3.50;1.20;;;;;;;;;;5050813;28;20129;-69
2021/01/19 12:27:13;;;;;;;1.30;1.08;;;;;;;;;;5049734;28;20072;-69
2021/01/19 12:29:39;;;;;;;2.20;1.50;;;;;;;;;;5050316;28;20092;-69
2021/01/19 12:32:10;;;;;;;1.77;1.25;;;;;;;;;;5049505;28;20041;-69
2021/01/19 12:34:37;;;;;;;1.33;1.20;;;;;;;;;;5049643;28;20048;-69
2021/01/19 12:37:04;;;;;;;1.63;1.00;;;;;;;;;;5049949;28;20044;-69
2021/01/19 12:39:31;;;;;;;0.93;0.85;;;;;;;;;;5050459;28;20123;-69
2021/01/19 12:41:57;;;;;;;1.42;1.27;;;;;;;;;;5046725;28;20416;-69
2021/01/19 12:44:23;;;;;;;1.70;1.23;;;;;;;;;;5049479;28;20052;-69
2021/01/19 12:46:50;;;;;;;2.33;1.30;;;;;;;;;;5048701;28;20536;-69
2021/01/19 12:49:16;;;;;;;2.03;1.20;;;;;;;;;;5046979;28;20051;-69
2021/01/19 12:51:42;;;;;;;3.13;1.25;;;;;;;;;;5048231;28;20060;-69
2021/01/19 12:54:09;;;;;;;2.70;1.70;;;;;;;;;;5048368;28;20558;-69
2021/01/19 12:56:36;;;;;;;1.90;1.45;;;;;;;;;;5048173;28;20041;-69
2021/01/19 12:59:02;;;;;;;3.10;1.40;;;;;;;;;;5047471;28;20053;-69
2021/01/19 13:01:28;;;;;;;1.85;1.38;;;;;;;;;;5049556;28;20052;-70
2021/01/19 13:03:55;;;;;;;1.67;1.00;;;;;;;;;;5048278;28;20041;-69
2021/01/19 13:06:21;;;;;;;3.15;1.02;;;;;;;;;;5049470;28;20095;-70
2021/01/19 13:08:48;;;;;;;5.35;1.33;;;;;;;;;;5048772;28;20468;-69
2021/01/19 13:11:14;;;;;;;1.30;1.10;;;;;;;;;;5050188;28;20095;-69
2021/01/19 13:13:40;;;;;;;5.25;3.53;;;;;;;;;;5048941;28;20064;-69
2021/01/19 13:16:06;;;;;;;3.25;2.60;;;;;;;;;;5046903;28;20049;-70
2021/01/19 13:18:33;;;;;;;1.02;0.93;;;;;;;;;;5049086;28;20047;-70
2021/01/19 13:20:59;;;;;;;2.90;1.03;;;;;;;;;;5044500;28;20057;-70
2021/01/19 13:23:27;;;;;;;1.20;1.05;;;;;;;;;;5046547;28;20048;-70
2021/01/19 13:25:53;;;;;;;1.30;1.00;;;;;;;;;;5048560;28;20044;-70
2021/01/19 13:28:19;;;;;;;1.50;0.98;;;;;;;;;;5021226;28;801499;-70
2021/01/19 13:30:47;;;;;;;0.95;0.90;;;;;;;;;;5050348;28;20119;-70
2021/01/19 13:33:13;;;;;;;2.33;1.23;;;;;;;;;;5049837;28;20037;-70
2021/01/19 13:35:40;;;;;;;0.50;0.50;;;;;;;;;;5050519;28;20059;-70
2021/01/19 13:38:06;;;;;;;4.15;0.82;;;;;;;;;;5048221;28;20634;-70
2021/01/19 13:40:32;;;;;;;1.20;0.95;;;;;;;;;;5051154;28;20128;-70
2021/01/19 13:42:59;;;;;;;1.60;0.85;;;;;;;;;;5047639;28;20119;-70
2021/01/19 13:45:26;;;;;;;1.23;0.88;;;;;;;;;;5049055;28;20040;-70
2021/01/19 13:47:52;;;;;;;1.38;0.93;;;;;;;;;;5049581;28;20507;-70
2021/01/19 13:50:19;;;;;;;1.92;0.90;;;;;;;;;;5050838;28;20441;-70
2021/01/19 13:52:47;;;;;;;2.83;1.15;;;;;;;;;;5050158;28;20048;-70
2021/01/19 13:55:14;;;;;;;0.70;0.70;;;;;;;;;;5049671;28;20086;-70
2021/01/19 13:57:41;;;;;;;1.67;0.82;;;;;;;;;;5046443;28;20037;-70
2021/01/19 14:00:07;;;;;;;2.47;0.70;;;;;;;;;;5049255;28;20148;-70
2021/01/19 14:02:37;;;;;;;2.40;0.90;;;;;;;;;;5048739;28;20028;-70
2021/01/19 14:05:04;;;;;;;0.90;0.63;;;;;;;;;;5048401;28;20466;-70
2021/01/19 14:07:30;;;;;;;0.80;0.80;;;;;;;;;;5049579;28;20045;-70
2021/01/19 14:09:56;;;;;;;0.80;0.80;;;;;;;;;;5049474;28;20438;-70
2021/01/19 14:12:23;;;;;;;0.90;0.90;;;;;;;;;;5049943;28;20393;-70
2021/01/19 14:14:49;;;;;;;1.05;0.90;;;;;;;;;;5049456;28;20517;-70
2021/01/19 14:17:15;;;;;;;1.52;1.10;;;;;;;;;;5049377;28;20045;-70
2021/01/19 14:19:42;;;;;;;0.80;0.80;;;;;;;;;;5048772;28;20037;-71
2021/01/19 14:22:08;;;;;;;2.85;1.00;;;;;;;;;;5047542;28;20969;-70
2021/01/19 14:24:35;;;;;;;0.90;0.90;;;;;;;;;;5050331;28;20045;-70
2021/01/19 14:27:01;;;;;;;1.35;1.17;;;;;;;;;;5049330;28;20444;-70
2021/01/19 14:29:27;;;;;;;1.63;0.98;;;;;;;;;;5048947;28;20045;-71
2021/01/19 14:31:54;;;;;;;3.00;1.23;;;;;;;;;;5049118;28;20094;-70
2021/01/19 14:34:21;;;;;;;2.58;1.25;;;;;;;;;;5048973;28;20048;-71
2021/01/19 14:36:49;;;;;;;1.90;1.48;;;;;;;;;;5048760;28;20381;-70
2021/01/19 14:39:16;;;;;;;2.50;1.52;;;;;;;;;;5047571;28;20037;-70
2021/01/19 14:41:43;;;;;;;2.40;1.77;;;;;;;;;;5048626;28;20048;-71